Time;durP1;ratioP1;P1;durP2;ratioP2;P2;SDS_P1;SDS_P2;PMS_P1;PMS_P2;Temp;Humidity;BMP_temperature;BMP_pressure;BME280_temperature;BME280_humidity;BME280_pressure;Samples;Min_cycle;Max_cycle;Signal;HPM_P1;HPM_P2
2021/01/21 00:02:05;;;;;;;6.90;3.05;;;;;;;;;;5070619;28;20656;-81
2021/01/21 00:04:31;;;;;;;6.93;2.85;;;;;;;;;;5071364;28;20029;-81
2021/01/21 00:06:57;;;;;;;5.00;2.70;;;;;;;;;;5071334;28;20486;-82
2021/01/21 00:09:23;;;;;;;4.65;2.33;;;;;;;;;;5072058;28;20028;-81
2021/01/21 00:11:49;;;;;;;3.63;2.15;;;;;;;;;;5070183;28;20648;-81
2021/01/21 00:14:15;;;;;;;5.30;2.83;;;;;;;;;;5068544;28;20040;-81
2021/01/21 00:16:42;;;;;;;4.32;2.05;;;;;;;;;;5070565;28;20016;-82
2021/01/21 00:19:08;;;;;;;3.97;1.95;;;;;;;;;;5074996;28;20049;-81
2021/01/21 00:21:34;;;;;;;4.15;2.28;;;;;;;;;;5088829;28;20024;-81
2021/01/21 00:24:00;;;;;;;4.43;1.88;;;;;;;;;;5089358;28;20058;-81
2021/01/21 00:26:27;;;;;;;4.45;2.33;;;;;;;;;;5088427;28;20048;-81
2021/01/21 00:28:53;;;;;;;6.00;2.08;;;;;;;;;;5072779;28;20055;-82
2021/01/21 00:31:18;;;;;;;4.80;2.53;;;;;;;;;;5077310;28;20036;-81
2021/01/21 00:33:44;;;;;;;4.15;2.30;;;;;;;;;;5069165;28;20517;-81
2021/01/21 00:36:12;;;;;;;4.35;2.20;;;;;;;;;;5070372;28;20024;-82
2021/01/21 00:38:38;;;;;;;3.72;1.80;;;;;;;;;;5071940;28;20039;-81
2021/01/21 00:41:04;;;;;;;5.45;2.03;;;;;;;;;;5048133;28;20044;-81
2021/01/21 00:43:30;;;;;;;3.47;1.60;;;;;;;;;;5072705;28;20060;-81
2021/01/21 00:45:57;;;;;;;4.85;1.67;;;;;;;;;;5077821;28;20028;-82
2021/01/21 00:48:23;;;;;;;4.05;1.90;;;;;;;;;;5071771;28;20047;-81
2021/01/21 00:50:49;;;;;;;3.30;1.60;;;;;;;;;;5069475;28;20064;-81
2021/01/21 00:53:16;;;;;;;5.90;1.58;;;;;;;;;;5070309;28;20028;-80
2021/01/21 00:55:42;;;;;;;3.15;1.30;;;;;;;;;;5070213;28;20102;-82
2021/01/21 00:58:08;;;;;;;2.20;1.10;;;;;;;;;;5070786;28;20028;-81
2021/01/21 01:00:35;;;;;;;2.53;1.45;;;;;;;;;;5069644;28;20561;-81
2021/01/21 01:03:02;;;;;;;3.38;1.35;;;;;;;;;;5071409;28;20074;-80
2021/01/21 01:05:28;;;;;;;4.10;1.30;;;;;;;;;;5067496;28;20025;-80
2021/01/21 01:07:55;;;;;;;4.20;1.75;;;;;;;;;;5069760;28;20058;-81
2021/01/21 01:10:21;;;;;;;1.88;1.20;;;;;;;;;;5068338;28;20028;-80
2021/01/21 01:12:47;;;;;;;4.22;1.70;;;;;;;;;;5070299;28;20083;-80
2021/01/21 01:15:13;;;;;;;3.95;1.42;;;;;;;;;;5068079;28;20028;-81
2021/01/21 01:17:39;;;;;;;3.70;1.60;;;;;;;;;;5070175;28;20067;-82
2021/01/21 01:20:06;;;;;;;3.42;1.83;;;;;;;;;;5052351;28;20032;-81
2021/01/21 01:22:32;;;;;;;3.67;1.45;;;2.60;99.90;;;;;;5068155;28;20082;-80
2021/01/21 01:24:58;;;;;;;2.97;1.52;;;2.50;99.90;;;;;;5068855;28;20025;-80
2021/01/21 01:27:23;;;;;;;4.05;1.80;;;2.50;99.90;;;;;;5069481;28;20032;-81
2021/01/21 01:29:49;;;;;;;4.97;1.90;;;2.40;99.90;;;;;;5067188;28;20035;-81
2021/01/21 01:32:15;;;;;;;3.75;2.20;;;2.40;99.90;;;;;;5066698;28;20040;-81
2021/01/21 01:34:41;;;;;;;4.07;2.45;;;2.40;99.90;;;;;;5050748;28;20116;-82
2021/01/21 01:37:07;;;;;;;5.15;2.17;;;2.40;99.90;;;;;;5066652;28;20108;-82
2021/01/21 01:39:34;;;;;;;4.68;2.45;;;2.30;99.90;;;;;;5066917;28;20966;-81
2021/01/21 01:42:06;;;;;;;4.22;2.42;;;2.30;99.90;;;;;;5069473;28;20123;-82
2021/01/21 01:44:33;;;;;;;4.80;2.53;;;2.20;99.90;;;;;;5051993;28;20115;-81
2021/01/21 01:46:59;;;;;;;4.88;2.17;;;2.20;99.90;;;;;;5070169;28;20029;-81
2021/01/21 01:49:25;;;;;;;5.47;2.30;;;2.20;99.90;;;;;;5066062;28;20044;-80
2021/01/21 01:51:50;;;;;;;4.70;2.30;;;2.10;99.90;;;;;;5072805;28;20097;-79
2021/01/21 01:54:16;;;;;;;5.38;2.75;;;2.10;99.90;;;;;;5073872;28;20137;-82
2021/01/21 01:56:42;;;;;;;4.63;2.00;;;2.10;99.90;;;;;;5067942;28;20024;-81
2021/01/21 01:59:08;;;;;;;5.30;2.47;;;2.10;99.90;;;;;;5068870;28;20024;-81
2021/01/21 02:01:34;;;;;;;4.82;2.47;;;2.00;99.90;;;;;;5063945;28;20078;-81
2021/01/21 02:04:00;;;;;;;5.32;2.55;;;2.00;99.90;;;;;;5063339;28;20476;-80
2021/01/21 02:06:26;;;;;;;4.90;2.40;;;1.90;99.90;;;;;;5069602;28;20039;-81
2021/01/21 02:08:51;;;;;;;5.47;2.42;;;1.90;99.90;;;;;;5052295;28;20108;-81
2021/01/21 02:11:42;;;;;;;6.70;2.50;;;1.80;99.90;;;;;;5065536;28;20044;-82
2021/01/21 02:14:20;;;;;;;5.70;2.35;;;1.90;99.90;;;;;;5051628;28;20380;-82
2021/01/21 02:17:02;;;;;;;4.63;2.38;;;1.80;99.90;;;;;;5071067;28;20028;-82
2021/01/21 02:19:39;;;;;;;3.40;2.08;;;1.90;99.90;;;;;;5063410;28;20048;-83
2021/01/21 02:22:49;;;;;;;4.90;2.50;;;2.00;99.90;;;;;;5068903;28;20632;-82
2021/01/21 02:25:22;;;;;;;4.07;1.70;;;2.00;99.90;;;;;;5068692;28;20025;-82
2021/01/21 02:28:09;;;;;;;4.57;2.42;;;2.00;99.90;;;;;;5059270;28;20116;-82
2021/01/21 02:30:41;;;;;;;5.38;2.60;;;1.90;99.90;;;;;;5073969;28;20033;-82
2021/01/21 02:33:29;;;;;;;5.10;2.20;;;1.80;99.90;;;;;;5053205;28;20048;-82
2021/01/21 02:36:00;;;;;;;5.20;2.30;;;1.90;99.90;;;;;;5065552;28;20037;-81
2021/01/21 02:38:30;;;;;;;4.55;2.10;;;1.80;99.90;;;;;;5070934;28;20351;-81
2021/01/21 02:40:55;;;;;;;;;;;1.70;99.90;;;;;;5092079;28;19996;-82
2021/01/21 02:43:21;;;;;;;4.45;2.00;;;1.80;99.90;;;;;;5083700;28;19908;-81
2021/01/21 02:45:47;;;;;;;4.13;2.13;;;1.70;99.90;;;;;;5081584;28;20096;-81
2021/01/21 02:48:12;;;;;;;5.07;2.03;;;1.70;99.90;;;;;;5072079;28;20078;-81
2021/01/21 02:50:39;;;;;;;4.07;2.05;;;1.80;99.90;;;;;;5069345;28;20016;-80
2021/01/21 02:53:05;;;;;;;4.20;1.80;;;1.90;99.90;;;;;;5068235;28;20044;-82
2021/01/21 02:55:37;;;;;;;5.70;2.25;;;1.90;99.90;;;;;;5073318;28;20098;-79
2021/01/21 02:58:13;;;;;;;4.97;2.33;;;1.90;99.90;;;;;;5070740;28;20415;-82
2021/01/21 03:00:40;;;;;;;4.75;2.45;;;2.00;99.90;;;;;;5068300;28;20029;-81
2021/01/21 03:03:14;;;;;;;4.60;2.35;;;2.00;99.90;;;;;;5068831;28;20040;-80
2021/01/21 03:05:43;;;;;;;6.13;2.60;;;2.00;99.90;;;;;;5069552;28;20098;-81
2021/01/21 03:08:10;;;;;;;4.60;2.38;;;2.00;99.90;;;;;;5068397;28;20020;-79
2021/01/21 03:10:36;;;;;;;4.75;2.28;;;2.10;99.90;;;;;;5068197;28;20111;-81
2021/01/21 03:13:01;;;;;;;5.68;2.38;;;2.10;99.90;;;;;;5067621;28;20044;-80
2021/01/21 03:15:27;;;;;;;5.65;2.90;;;2.10;99.90;;;;;;5067549;28;20025;-81
2021/01/21 03:17:54;;;;;;;4.03;1.98;;;2.10;99.90;;;;;;5063452;28;20059;-80
2021/01/21 03:20:20;;;;;;;5.32;2.20;;;2.10;99.90;;;;;;5046921;28;20028;-80
2021/01/21 03:22:45;;;;;;;5.60;2.15;;;2.00;99.90;;;;;;5047372;28;20113;-81
2021/01/21 03:25:12;;;;;;;4.55;2.30;;;2.00;99.90;;;;;;5048498;28;20021;-80
2021/01/21 03:27:37;;;;;;;4.68;2.30;;;2.00;99.90;;;;;;5048478;28;20040;-81
2021/01/21 03:30:08;;;;;;;4.88;2.30;;;1.90;99.90;;;;;;5048631;28;20021;-80
2021/01/21 03:32:34;;;;;;;4.57;2.15;;;1.80;99.90;;;;;;5046869;28;20424;-80
2021/01/21 03:35:00;;;;;;;5.20;2.22;;;1.70;99.90;;;;;;5048981;28;20375;-79
2021/01/21 03:37:25;;;;;;;4.53;2.38;;;1.60;99.90;;;;;;5052807;28;20025;-83
2021/01/21 03:39:51;;;;;;;5.88;2.10;;;1.60;99.90;;;;;;5047606;28;20028;-81
2021/01/21 03:42:17;;;;;;;3.78;2.22;;;1.60;99.90;;;;;;5049777;28;20025;-80
2021/01/21 03:44:42;;;;;;;5.75;2.30;;;1.50;99.90;;;;;;5062061;28;20282;-81
2021/01/21 03:47:09;;;;;;;5.50;2.42;;;1.40;99.90;;;;;;5054409;28;20128;-80
2021/01/21 03:49:34;;;;;;;5.45;3.03;;;1.50;99.90;;;;;;5050110;28;20091;-81
2021/01/21 03:52:00;;;;;;;4.80;2.35;;;1.50;99.90;;;;;;5048649;28;20032;-79
2021/01/21 03:54:26;;;;;;;4.03;2.25;;;1.50;99.90;;;;;;5030176;28;20036;-80
2021/01/21 03:56:52;;;;;;;5.60;2.90;;;1.50;99.90;;;;;;5047881;28;20033;-80
2021/01/21 03:59:18;;;;;;;5.85;2.42;;;1.50;99.90;;;;;;5050427;28;20033;-79
2021/01/21 04:01:44;;;;;;;5.47;2.77;;;1.50;99.90;;;;;;5052298;28;20736;-80
2021/01/21 04:04:10;;;;;;;5.47;2.40;;;1.60;99.90;;;;;;5049560;28;20109;-80
2021/01/21 04:06:36;;;;;;;6.27;2.53;;;1.60;99.90;;;;;;5031682;28;20026;-80
2021/01/21 04:09:02;;;;;;;5.70;2.65;;;1.60;99.90;;;;;;5053129;28;20025;-80
2021/01/21 04:11:27;;;;;;;5.65;3.00;;;1.60;99.90;;;;;;5052370;28;20531;-82
2021/01/21 04:13:53;;;;;;;4.47;2.70;;;1.60;99.90;;;;;;5051946;28;20068;-81
2021/01/21 04:16:19;;;;;;;4.87;2.60;;;1.60;99.90;;;;;;5050954;28;20104;-80
2021/01/21 04:18:44;;;;;;;4.93;2.90;;;1.50;99.90;;;;;;5064418;28;20060;-80
2021/01/21 04:21:10;;;;;;;6.75;2.80;;;1.40;99.90;;;;;;5064861;28;20051;-82
2021/01/21 04:23:36;;;;;;;6.80;3.47;;;1.40;99.90;;;;;;5065055;28;20032;-81
2021/01/21 04:26:02;;;;;;;8.73;3.00;;;1.40;99.90;;;;;;5054185;28;20089;-80
2021/01/21 04:28:29;;;;;;;6.43;2.78;;;1.40;99.90;;;;;;5053311;28;20040;-80
2021/01/21 04:30:55;;;;;;;6.00;2.70;;;1.40;99.90;;;;;;5072133;28;20130;-80
2021/01/21 04:33:20;;;;;;;5.87;3.07;;;1.40;99.90;;;;;;5072804;28;20068;-81
2021/01/21 04:35:46;;;;;;;7.18;2.90;;;1.50;99.90;;;;;;5071457;28;20059;-80
2021/01/21 04:38:12;;;;;;;7.22;2.90;;;1.50;99.90;;;;;;5072882;28;20037;-80
2021/01/21 04:40:38;;;;;;;7.60;3.10;;;1.50;99.90;;;;;;5087379;28;20040;-80
2021/01/21 04:43:03;;;;;;;6.28;2.80;;;1.50;99.90;;;;;;5086424;28;20029;-81
2021/01/21 04:45:29;;;;;;;6.53;2.95;;;1.60;99.90;;;;;;5078307;28;20058;-80
2021/01/21 04:47:56;;;;;;;5.55;2.80;;;1.60;99.90;;;;;;5072064;28;20024;-79
2021/01/21 04:50:22;;;;;;;6.10;2.83;;;1.60;99.90;;;;;;5071250;28;20024;-80
2021/01/21 04:52:50;;;;;;;5.53;2.57;;;1.60;99.90;;;;;;5071070;28;20115;-80
2021/01/21 04:55:21;;;;;;;7.20;2.90;;;1.60;99.90;;;;;;5068737;28;20064;-80
2021/01/21 04:58:09;;;;;;;5.90;3.47;;;1.60;99.90;;;;;;5071509;28;20025;-81
2021/01/21 05:00:35;;;;;;;6.20;2.50;;;1.50;99.90;;;;;;5069200;28;20563;-82
2021/01/21 05:03:03;;;;;;;5.63;2.87;;;1.50;99.90;;;;;;5054841;28;20234;-81
2021/01/21 05:05:28;;;;;;;7.53;3.08;;;1.50;99.90;;;;;;5074556;28;20036;-80
2021/01/21 05:07:55;;;;;;;8.73;3.10;;;1.40;99.90;;;;;;5082257;28;20050;-81
2021/01/21 05:10:25;;;;;;;5.65;2.58;;;1.50;99.90;;;;;;5082374;28;20036;-81
2021/01/21 05:12:51;;;;;;;5.28;2.90;;;1.40;99.90;;;;;;5072098;28;20051;-81
2021/01/21 05:15:17;;;;;;;6.05;3.03;;;1.30;99.90;;;;;;5070986;28;20029;-82
2021/01/21 05:17:43;;;;;;;5.60;3.10;;;1.20;99.90;;;;;;5066127;28;20060;-81
2021/01/21 05:20:10;;;;;;;6.15;2.90;;;1.20;99.90;;;;;;5047796;28;20510;-81
2021/01/21 05:22:37;;;;;;;7.10;3.03;;;1.20;99.90;;;;;;5050335;28;20036;-81
2021/01/21 05:25:03;;;;;;;8.30;4.43;;;1.10;99.90;;;;;;5032578;28;20315;-82
2021/01/21 05:27:29;;;;;;;7.33;3.10;;;1.10;99.90;;;;;;5048723;28;20035;-81
2021/01/21 05:29:59;;;;;;;5.25;2.70;;;1.10;99.90;;;;;;5048924;28;20039;-81
2021/01/21 05:32:25;;;;;;;6.45;2.85;;;1.10;99.90;;;;;;5048283;28;20302;-81
2021/01/21 05:34:51;;;;;;;5.10;2.60;;;1.20;99.90;;;;;;5049935;28;20053;-81
2021/01/21 05:37:17;;;;;;;7.00;2.87;;;1.20;99.90;;;;;;5045896;28;20057;-77
2021/01/21 05:39:44;;;;;;;5.23;2.80;;;1.20;99.90;;;;;;5047788;28;20032;-77
2021/01/21 05:42:11;;;;;;;5.45;2.60;;;1.20;99.90;;;;;;5049762;28;20035;-75
2021/01/21 05:44:37;;;;;;;5.65;2.90;;;1.30;99.90;;;;;;5048639;28;20036;-78
2021/01/21 05:47:04;;;;;;;4.55;2.83;;;1.30;99.90;;;;;;5047086;28;20079;-81
2021/01/21 05:49:30;;;;;;;5.87;3.10;;;1.30;99.90;;;;;;5042661;28;20476;-78
2021/01/21 05:51:57;;;;;;;5.93;2.65;;;1.30;99.90;;;;;;5047800;28;20111;-79
2021/01/21 05:54:23;;;;;;;5.72;2.67;;;1.40;99.90;;;;;;5051637;28;20067;-76
2021/01/21 05:56:54;;;;;;;6.97;3.38;;;1.40;99.90;;;;;;5050920;28;20289;-76
2021/01/21 05:59:20;;;;;;;7.50;3.35;;;1.60;99.90;;;;;;5046341;28;20033;-75
2021/01/21 06:01:48;;;;;;;10.48;4.30;;;1.70;99.90;;;;;;5049298;28;20021;-76
2021/01/21 06:04:14;;;;;;;8.57;3.95;;;1.80;99.90;;;;;;5049521;28;20021;-76
2021/01/21 06:06:40;;;;;;;6.47;3.35;;;1.90;99.90;;;;;;5050211;28;20021;-80
2021/01/21 06:09:15;;;;;;;7.20;3.50;;;1.90;99.90;;;;;;5048398;28;20122;-77
2021/01/21 06:11:44;;;;;;;6.75;3.33;;;1.90;99.90;;;;;;5045763;28;20040;-77
2021/01/21 06:14:11;;;;;;;7.50;3.30;;;1.90;99.90;;;;;;5042987;28;20101;-78
2021/01/21 06:16:38;;;;;;;5.20;2.97;;;2.00;99.90;;;;;;5047642;28;20099;-82
2021/01/21 06:19:04;;;;;;;7.35;2.88;;;2.00;99.90;;;;;;5061592;28;20163;-78
2021/01/21 06:21:36;;;;;;;5.20;2.70;;;2.00;99.90;;;;;;5067020;28;20115;-78
2021/01/21 06:24:05;;;;;;;5.95;2.83;;;2.10;99.90;;;;;;5069389;28;20069;-76
2021/01/21 06:26:42;;;;;;;6.97;3.20;;;2.10;99.90;;;;;;5068841;28;20024;-77
2021/01/21 06:29:13;;;;;;;5.90;2.80;;;2.20;99.90;;;;;;5067486;28;20025;-77
2021/01/21 06:31:41;;;;;;;5.80;2.83;;;2.20;99.90;;;;;;5067974;28;20483;-76
2021/01/21 06:34:13;;;;;;;7.35;3.03;;;2.20;99.90;;;;;;5068180;28;20041;-75
2021/01/21 06:36:43;;;;;;;7.28;3.20;;;2.40;99.90;;;;;;5068995;28;20043;-77
2021/01/21 06:39:14;;;;;;;4.50;2.40;;;2.60;99.90;;;;;;5068999;28;20078;-77
2021/01/21 06:41:43;;;;;;;5.13;2.40;;;2.80;99.90;;;;;;5067050;28;20025;-76
2021/01/21 06:44:15;;;;;;;3.30;1.55;;;3.20;99.90;;;;;;5068195;28;20453;-76
2021/01/21 06:46:43;;;;;;;3.00;1.60;;;3.70;99.90;;;;;;5067630;28;20413;-75
2021/01/21 06:49:10;;;;;;;3.75;1.45;;;4.20;99.90;;;;;;5069168;28;20090;-77
2021/01/21 06:51:36;;;;;;;3.42;1.73;;;4.60;99.90;;;;;;5067787;28;20044;-75
2021/01/21 06:54:02;;;;;;;2.85;1.30;;;5.10;99.90;;;;;;5068697;28;20382;-76
2021/01/21 06:56:31;;;;;;;2.67;1.10;;;5.40;99.90;;;;;;5069082;28;20071;-78
2021/01/21 06:58:57;;;;;;;3.90;1.48;;;5.80;99.90;;;;;;5068240;28;20103;-77
2021/01/21 07:01:31;;;;;;;4.38;1.63;;;6.00;99.90;;;;;;5065305;28;20115;-76
2021/01/21 07:04:18;;;;;;;3.50;1.30;;;6.30;99.90;;;;;;5068216;28;20044;-77
2021/01/21 07:06:50;;;;;;;2.92;1.20;;;6.50;99.90;;;;;;5062535;28;20091;-77
2021/01/21 07:09:17;;;;;;;2.72;0.80;;;6.70;99.90;;;;;;5072605;28;20522;-78
2021/01/21 07:11:44;;;;;;;1.98;1.10;;;6.80;99.90;;;;;;5050936;28;20458;-79
2021/01/21 07:14:20;;;;;;;2.72;0.85;;;6.90;99.90;;;;;;5063518;28;20158;-77
2021/01/21 07:17:05;;;;;;;1.17;0.50;;;7.00;99.90;;;;;;5070557;28;20054;-78
2021/01/21 07:19:38;;;;;;;1.27;0.70;;;7.10;99.90;;;;;;5041495;28;20504;-78
2021/01/21 07:22:18;;;;;;;0.93;0.70;;;7.20;99.90;;;;;;5044884;28;20021;-76
2021/01/21 07:25:00;;;;;;;;;;;7.30;99.90;;;;;;5028292;28;20057;-78
2021/01/21 07:27:31;;;;;;;3.85;0.70;;;7.40;99.90;;;;;;5044013;28;19995;-77
2021/01/21 07:30:20;;;;;;;2.53;0.93;;;7.40;99.90;;;;;;5048330;28;20049;-79
2021/01/21 07:32:47;;;;;;;1.65;0.80;;;7.40;99.90;;;;;;5046487;28;20565;-78
2021/01/21 07:35:31;;;;;;;1.83;0.63;;;7.50;99.90;;;;;;5047157;28;20044;-77
2021/01/21 07:37:57;;;;;;;2.15;0.98;;;7.50;99.90;;;;;;5047012;28;20025;-77
2021/01/21 07:40:44;;;;;;;2.03;1.02;;;7.60;99.90;;;;;;5039402;28;20534;-78
2021/01/21 07:43:10;;;;;;;4.85;0.90;;;7.60;99.90;;;;;;5040641;28;20039;-78
2021/01/21 07:45:37;;;;;;;2.22;1.00;;;7.70;99.90;;;;;;5049376;28;20029;-77
2021/01/21 07:48:19;;;;;;;2.33;0.82;;;7.90;99.90;;;;;;5051602;28;20611;-79
2021/01/21 07:50:45;;;;;;;2.40;0.77;;;7.90;99.90;;;;;;5051902;28;20163;-77
2021/01/21 07:53:18;;;;;;;3.50;0.90;;;8.10;99.90;;;;;;5051272;28;20040;-77
2021/01/21 07:55:44;;;;;;;1.30;0.60;;;8.30;99.90;;;;;;5051436;28;20067;-77
2021/01/21 07:58:19;;;;;;;1.10;0.60;;;8.30;99.90;;;;;;5052516;28;20476;-77
2021/01/21 08:00:47;;;;;;;2.47;0.60;;;8.40;99.90;;;;;;5052349;28;20036;-77
2021/01/21 08:03:14;;;;;;;2.25;0.88;;;8.40;99.90;;;;;;5051733;28;20048;-78
2021/01/21 08:05:40;;;;;;;2.85;0.70;;;8.50;99.90;;;;;;5052453;28;20068;-77
2021/01/21 08:08:06;;;;;;;4.85;0.90;;;8.50;99.90;;;;;;5033235;28;20102;-77
2021/01/21 08:10:34;;;;;;;1.85;0.80;;;8.50;99.90;;;;;;5050390;28;20025;-79
2021/01/21 08:13:02;;;;;;;3.47;0.70;;;8.60;99.90;;;;;;5055565;28;20170;-76
2021/01/21 08:15:29;;;;;;;3.08;0.80;;;8.60;99.90;;;;;;5049028;28;20021;-77
2021/01/21 08:17:57;;;;;;;2.63;0.70;;;8.60;99.90;;;;;;5056242;28;20048;-76
2021/01/21 08:20:25;;;;;;;3.40;0.63;;;8.70;99.90;;;;;;5053729;28;20476;-76
2021/01/21 08:23:09;;;;;;;1.77;0.88;;;8.70;99.90;;;;;;5076891;28;20103;-76
2021/01/21 08:25:41;;;;;;;1.98;0.70;;;8.70;99.90;;;;;;5070418;28;20043;-76
2021/01/21 08:28:08;;;;;;;2.95;0.95;;;8.70;99.90;;;;;;5065797;28;20509;-76
2021/01/21 08:30:33;;;;;;;3.50;0.60;;;8.70;99.90;;;;;;5065706;28;20028;-77
2021/01/21 08:33:07;;;;;;;1.55;0.55;;;8.80;99.90;;;;;;5070578;28;20047;-78
2021/01/21 08:35:37;;;;;;;1.95;0.80;;;8.90;99.90;;;;;;5065307;28;20529;-75
2021/01/21 08:38:05;;;;;;;1.55;0.80;;;8.90;99.90;;;;;;5070834;28;20119;-80
2021/01/21 08:40:32;;;;;;;1.77;0.75;;;8.90;99.90;;;;;;5068763;28;20056;-76
2021/01/21 08:42:58;;;;;;;2.70;0.60;;;9.00;99.90;;;;;;5070858;28;20028;-78
2021/01/21 08:45:29;;;;;;;2.05;0.65;;;9.00;99.90;;;;;;5070186;28;20041;-76
2021/01/21 08:47:55;;;;;;;2.78;0.70;;;9.10;99.90;;;;;;5071168;28;20054;-77
2021/01/21 08:50:31;;;;;;;2.53;0.70;;;9.10;99.90;;;;;;5065263;28;20040;-76
2021/01/21 08:53:03;;;;;;;2.33;0.85;;;9.10;99.90;;;;;;5070237;28;20121;-79
2021/01/21 08:55:36;;;;;;;2.42;0.80;;;9.20;99.90;;;;;;5071186;28;20043;-77
2021/01/21 08:58:03;;;;;;;2.03;1.00;;;9.20;99.90;;;;;;5069498;28;20052;-80
2021/01/21 09:00:30;;;;;;;3.10;0.80;;;9.30;99.90;;;;;;5069483;28;20075;-77
2021/01/21 09:02:56;;;;;;;2.45;0.80;;;9.40;99.90;;;;;;5069415;28;20051;-79
2021/01/21 09:05:22;;;;;;;2.00;1.05;;;9.40;99.90;;;;;;5070508;28;20033;-79
2021/01/21 09:08:00;;;;;;;2.63;1.00;;;9.50;99.90;;;;;;5065942;28;20075;-79
2021/01/21 09:10:25;;;;;;;2.30;0.90;;;9.50;99.90;;;;;;5068174;28;20107;-79
2021/01/21 09:13:01;;;;;;;3.95;1.10;;;9.50;99.90;;;;;;5061779;28;20115;-78
2021/01/21 09:15:28;;;;;;;1.15;0.70;;;9.60;99.90;;;;;;5071103;28;20366;-77
2021/01/21 09:18:05;;;;;;;2.88;0.93;;;9.60;99.90;;;;;;5064071;28;20648;-78
2021/01/21 09:20:32;;;;;;;1.83;0.90;;;9.70;99.90;;;;;;5043744;28;20045;-78
2021/01/21 09:23:12;;;;;;;1.73;0.60;;;9.70;99.90;;;;;;5049297;28;20379;-78
2021/01/21 09:25:37;;;;;;;2.85;0.85;;;9.80;99.90;;;;;;5045836;28;20116;-78
2021/01/21 09:28:03;;;;;;;1.40;0.80;;;9.80;99.90;;;;;;5055044;28;20060;-76
2021/01/21 09:30:29;;;;;;;2.10;0.52;;;9.80;99.90;;;;;;5052927;28;20025;-77
2021/01/21 09:32:56;;;;;;;2.63;0.60;;;9.90;99.90;;;;;;5047934;28;20094;-78
2021/01/21 09:35:23;;;;;;;0.77;0.47;;;10.00;99.90;;;;;;5048331;28;20025;-76
2021/01/21 09:37:54;;;;;;;2.53;0.60;;;10.10;99.90;;;;;;5049188;28;20090;-77
2021/01/21 09:40:22;;;;;;;0.77;0.45;;;10.20;99.90;;;;;;5047998;28;20026;-77
2021/01/21 09:42:48;;;;;;;1.63;0.50;;;10.40;99.90;;;;;;5040290;28;20032;-77
2021/01/21 09:45:15;;;;;;;1.48;0.60;;;10.40;99.90;;;;;;5044486;28;20039;-78
2021/01/21 09:47:41;;;;;;;4.13;0.65;;;10.50;99.90;;;;;;5046061;28;20029;-77
2021/01/21 09:50:10;;;;;;;2.35;0.68;;;10.50;99.90;;;;;;5046103;28;20691;-78
2021/01/21 09:52:36;;;;;;;2.03;0.50;;;10.70;99.90;;;;;;5030512;28;20182;-78
2021/01/21 09:55:03;;;;;;;2.13;0.70;;;10.80;99.90;;;;;;5044937;28;20538;-77
2021/01/21 09:57:30;;;;;;;4.38;0.70;;;10.90;99.90;;;;;;5046558;28;20040;-78
2021/01/21 09:59:56;;;;;;;2.00;0.50;;;11.10;99.90;;;;;;5047579;28;20032;-78
2021/01/21 10:02:22;;;;;;;1.92;0.50;;;11.20;99.90;;;;;;5044751;28;20499;-78
2021/01/21 10:04:48;;;;;;;2.20;0.65;;;11.20;99.90;;;;;;5041370;28;20083;-79
2021/01/21 10:07:15;;;;;;;1.20;0.43;;;11.20;99.90;;;;;;5043134;28;20493;-78
2021/01/21 10:09:41;;;;;;;1.30;0.63;;;11.10;99.90;;;;;;5045966;28;20170;-78
2021/01/21 10:12:09;;;;;;;1.45;0.57;;;11.10;99.90;;;;;;5048475;28;20571;-79
2021/01/21 10:14:35;;;;;;;1.23;0.63;;;11.20;99.90;;;;;;5050181;28;20373;-79
2021/01/21 10:17:02;;;;;;;2.08;0.65;;;11.40;99.90;;;;;;5050592;28;20029;-79
2021/01/21 10:19:29;;;;;;;2.25;0.63;;;11.50;99.90;;;;;;5068813;28;20415;-79
2021/01/21 10:21:55;;;;;;;0.80;0.52;;;11.80;99.40;;;;;;5069353;28;20039;-77
2021/01/21 10:24:22;;;;;;;0.90;0.43;;;11.90;99.30;;;;;;5067406;28;20028;-77
2021/01/21 10:26:49;;;;;;;1.10;0.50;;;12.00;98.70;;;;;;5069857;28;20102;-78
2021/01/21 10:29:14;;;;;;;1.90;0.68;;;12.00;98.80;;;;;;5068851;28;20502;-79
2021/01/21 10:31:40;;;;;;;1.48;0.50;;;12.10;98.40;;;;;;5063488;28;20024;-78
2021/01/21 10:34:07;;;;;;;1.15;0.50;;;12.00;98.60;;;;;;5070032;28;20045;-77
2021/01/21 10:36:33;;;;;;;2.38;0.95;;;12.00;98.30;;;;;;5069940;28;20711;-78
2021/01/21 10:39:00;;;;;;;4.43;0.70;;;11.90;98.50;;;;;;5069373;28;20066;-77
2021/01/21 10:41:27;;;;;;;1.02;0.70;;;11.80;98.40;;;;;;5068975;28;20029;-78
2021/01/21 10:43:53;;;;;;;2.00;0.63;;;11.80;98.50;;;;;;5068408;28;20390;-78
2021/01/21 10:46:20;;;;;;;1.20;0.60;;;11.80;98.20;;;;;;5067383;28;20115;-80
2021/01/21 10:48:45;;;;;;;2.08;0.57;;;11.90;98.10;;;;;;5069495;28;20067;-78
2021/01/21 10:51:11;;;;;;;1.13;0.60;;;11.90;98.30;;;;;;5068878;28;20052;-77
2021/01/21 10:53:36;;;;;;;1.88;0.68;;;12.00;97.90;;;;;;5065834;28;20546;-78
2021/01/21 10:56:02;;;;;;;0.82;0.55;;;12.10;98.10;;;;;;5066965;28;20111;-78
2021/01/21 10:58:27;;;;;;;1.05;0.55;;;12.20;97.80;;;;;;5064949;28;20386;-79
2021/01/21 11:00:53;;;;;;;0.88;0.55;;;12.30;97.80;;;;;;5065955;28;20055;-78
2021/01/21 11:03:19;;;;;;;2.40;0.60;;;12.40;97.40;;;;;;5068468;28;20055;-78
2021/01/21 11:05:45;;;;;;;1.20;0.50;;;12.30;97.30;;;;;;5067512;28;20040;-77
2021/01/21 11:08:11;;;;;;;0.45;0.40;;;12.40;97.40;;;;;;5069441;28;20071;-80
2021/01/21 11:10:40;;;;;;;2.70;0.65;;;12.40;96.90;;;;;;5068344;28;20028;-77
2021/01/21 11:13:06;;;;;;;1.00;0.50;;;12.40;96.90;;;;;;5067933;28;20032;-79
2021/01/21 11:15:34;;;;;;;2.22;0.68;;;12.50;97.20;;;;;;5066229;28;20509;-80
2021/01/21 11:18:00;;;;;;;3.00;0.70;;;12.60;96.90;;;;;;5066560;28;20466;-79
2021/01/21 11:20:26;;;;;;;1.27;0.75;;;12.60;96.90;;;;;;5072947;28;20040;-78
2021/01/21 11:22:52;;;;;;;1.70;0.73;;;12.70;96.90;;;;;;5073235;28;20051;-79
2021/01/21 11:25:18;;;;;;;1.60;0.82;;;12.80;96.30;;;;;;5070788;28;20043;-78
2021/01/21 11:27:44;;;;;;;2.25;1.30;;;12.90;96.80;;;;;;5071137;28;20025;-78
2021/01/21 11:30:13;;;;;;;1.58;0.63;;;13.00;96.80;;;;;;5069998;28;20420;-79
2021/01/21 11:32:39;;;;;;;3.08;1.13;;;13.10;96.30;;;;;;5070457;28;20042;-78
2021/01/21 11:35:06;;;;;;;0.90;0.57;;;13.10;96.30;;;;;;5070994;28;20757;-76
2021/01/21 11:37:32;;;;;;;2.30;0.73;;;13.20;95.70;;;;;;5070602;28;20475;-78
2021/01/21 11:39:57;;;;;;;0.95;0.57;;;13.20;95.80;;;;;;5076850;28;20036;-78
2021/01/21 11:42:23;;;;;;;3.22;0.90;;;13.30;95.50;;;;;;5054550;28;20119;-76
2021/01/21 11:44:49;;;;;;;4.28;0.80;;;13.30;95.70;;;;;;5070813;28;20028;-77
2021/01/21 11:47:15;;;;;;;3.47;2.22;;;13.40;95.60;;;;;;5068857;28;20078;-77
2021/01/21 11:49:41;;;;;;;0.63;0.47;;;13.50;95.70;;;;;;5070745;28;20107;-77
2021/01/21 11:52:07;;;;;;;1.00;0.60;;;13.60;94.80;;;;;;5072965;28;20113;-79
2021/01/21 11:54:33;;;;;;;1.05;0.68;;;13.60;94.50;;;;;;5079667;28;20024;-78
2021/01/21 11:56:58;;;;;;;1.40;0.68;;;13.60;94.80;;;;;;5072288;28;20463;-78
2021/01/21 11:59:24;;;;;;;1.45;0.57;;;13.60;94.30;;;;;;5070939;28;20285;-77
2021/01/21 12:01:50;;;;;;;1.60;0.68;;;13.60;94.00;;;;;;5067987;28;20042;-77
2021/01/21 12:04:15;;;;;;;1.92;0.80;;;13.70;93.90;;;;;;5069119;28;20031;-79
2021/01/21 12:06:41;;;;;;;1.38;0.60;;;13.70;94.20;;;;;;5073172;28;20054;-77
2021/01/21 12:09:07;;;;;;;1.30;0.60;;;13.80;94.00;;;;;;5072490;28;20021;-78
2021/01/21 12:11:33;;;;;;;2.00;0.70;;;13.80;93.80;;;;;;5063729;28;20062;-77
2021/01/21 12:13:59;;;;;;;1.70;0.82;;;14.00;93.80;;;;;;5069625;28;20094;-77
2021/01/21 12:16:25;;;;;;;2.30;0.70;;;14.20;93.70;;;;;;5070997;28;20547;-77
2021/01/21 12:18:51;;;;;;;0.95;0.60;;;14.50;93.40;;;;;;5060908;28;20045;-79
2021/01/21 12:21:18;;;;;;;2.03;0.60;;;;;;;;;;5049872;28;20316;-76
2021/01/21 12:23:44;;;;;;;1.80;0.40;;;;;;;;;;5052114;28;20021;-76
2021/01/21 12:26:10;;;;;;;1.15;0.60;;;;;;;;;;5052240;28;20044;-77
2021/01/21 12:28:36;;;;;;;2.13;0.70;;;;;;;;;;5051476;28;20031;-77
2021/01/21 12:31:05;;;;;;;2.25;0.80;;;;;;;;;;5051569;28;20064;-75
2021/01/21 12:33:32;;;;;;;1.40;0.57;;;;;;;;;;5051496;28;20040;-76
2021/01/21 12:35:58;;;;;;;0.85;0.50;;;;;;;;;;5050901;28;20350;-75
2021/01/21 12:38:25;;;;;;;0.63;0.43;;;;;;;;;;5046174;28;20112;-75
2021/01/21 12:40:52;;;;;;;1.23;0.40;;;;;;;;;;5051277;28;20083;-74
2021/01/21 12:43:18;;;;;;;4.18;0.60;;;;;;;;;;5052282;28;20059;-77
2021/01/21 12:45:48;;;;;;;1.95;0.47;;;;;;;;;;5054525;28;20181;-77
2021/01/21 12:48:14;;;;;;;0.73;0.40;;;;;;;;;;5050913;28;20032;-78
2021/01/21 12:50:40;;;;;;;1.13;0.40;;;;;;;;;;5051202;28;20024;-78
2021/01/21 12:53:06;;;;;;;0.82;0.50;;;;;;;;;;5048067;28;20041;-77
2021/01/21 12:55:33;;;;;;;1.35;0.40;;;;;;;;;;5045023;28;20025;-76
2021/01/21 12:57:59;;;;;;;0.47;0.30;;;;;;;;;;5050409;28;20082;-76
2021/01/21 13:00:25;;;;;;;1.05;0.28;;;;;;;;;;5050385;28;20426;-76
2021/01/21 13:02:51;;;;;;;0.88;0.47;;;;;;;;;;5047659;28;20030;-78
2021/01/21 13:05:18;;;;;;;0.88;0.50;;;;;;;;;;5047102;28;20120;-77
2021/01/21 13:07:44;;;;;;;0.77;0.40;;;;;;;;;;5049710;28;20029;-78
2021/01/21 13:10:10;;;;;;;0.80;0.50;;;;;;;;;;5049819;28;20045;-77
2021/01/21 13:12:36;;;;;;;1.15;0.60;;;;;;;;;;5049272;28;20040;-77
2021/01/21 13:15:02;;;;;;;0.98;0.40;;;;;;;;;;5046902;28;20025;-77
2021/01/21 13:17:28;;;;;;;1.48;0.45;;;;;;;;;;5048696;28;20048;-77